Time;durP1;ratioP1;P1;durP2;ratioP2;P2;SDS_P1;SDS_P2;PMS_P1;PMS_P2;Temp;Humidity;BMP_temperature;BMP_pressure;BME280_temperature;BME280_humidity;BME280_pressure;Samples;Min_cycle;Max_cycle;Signal;HPM_P1;HPM_P2
2022/11/03 00:01:41;;;;;;;;;;;;;;;7.62;45.00;95719.59;4928458;29;19982;-75
2022/11/03 00:04:08;;;;;;;;;;;;;;;7.45;45.26;95713.34;4929580;29;19991;-75
2022/11/03 00:06:34;;;;;;;;;;;;;;;7.61;46.28;95717.94;4941395;28;20034;-75
2022/11/03 00:08:59;;;;;;;;;;;;;;;7.63;45.13;95715.13;4930408;29;19999;-75
2022/11/03 00:11:25;;;;;;;;;;;;;;;7.08;47.76;95717.94;4934565;29;19991;-75
2022/11/03 00:13:50;;;;;;;;;;;;;;;7.26;46.52;95714.41;4927612;28;20423;-75
2022/11/03 00:16:15;;;;;;;;;;;;;;;7.34;48.03;95711.00;4943557;28;20579;-75
2022/11/03 00:18:40;;;;;;;;;;;;;;;7.38;46.86;95710.50;4943584;28;20037;-75
2022/11/03 00:21:06;;;;;;;;;;;;;;;7.32;46.38;95720.91;4928302;29;20109;-75
2022/11/03 00:23:33;;;;;;;;;;;;;;;7.44;45.43;95734.72;4942152;28;20041;-75
2022/11/03 00:26:04;;;;;;;;;;;;;;;7.41;45.24;95717.31;4943196;28;20037;-76
2022/11/03 00:28:30;;;;;;;;;;;;;;;7.20;46.54;95721.16;4943492;29;20529;-76
2022/11/03 00:30:55;;;;;;;;;;;;;;;7.55;45.50;95710.59;4930947;28;19995;-76
2022/11/03 00:33:25;;;;;;;;;;;;;;;7.71;45.00;95712.53;4944105;28;19975;-76
2022/11/03 00:35:50;;;;;;;;;;;;;;;7.57;45.98;95705.16;4943497;29;20403;-76
2022/11/03 00:38:15;;;;;;;;;;;;;;;7.60;45.57;95700.38;4929987;28;20199;-76
2022/11/03 00:40:41;;;;;;;;;;;;;;;7.69;45.34;95692.47;4944588;29;19978;-76
2022/11/03 00:43:06;;;;;;;;;;;;;;;7.30;47.15;95691.06;4944063;28;20456;-76
2022/11/03 00:45:31;;;;;;;;;;;;;;;7.30;46.55;95685.78;4946744;28;20402;-76
2022/11/03 00:50:40;;;;;;;;;;;;;;;7.37;46.04;95686.81;4937161;28;20277;-76
2022/11/03 00:53:05;;;;;;;;;;;;;;;7.36;45.85;95683.38;4944169;28;20070;-76
2022/11/03 00:55:31;;;;;;;;;;;;;;;7.34;47.64;95693.28;4943463;29;20414;-76
2022/11/03 00:57:56;;;;;;;;;;;;;;;7.28;46.48;95689.41;4928120;29;19987;-75
2022/11/03 01:00:21;;;;;;;;;;;;;;;7.65;45.43;95684.84;4944126;29;19982;-76
2022/11/03 01:02:46;;;;;;;;;;;;;;;7.48;45.46;95683.91;4942620;28;20018;-76
2022/11/03 01:07:56;;;;;;;;;;;;;;;6.85;47.33;95693.72;4943854;29;20053;-76
2022/11/03 01:10:21;;;;;;;;;;;;;;;7.39;46.25;95684.88;4949191;28;20668;-76
2022/11/03 01:12:46;;;;;;;;;;;;;;;7.35;46.79;95684.31;4943909;29;19971;-76
2022/11/03 01:15:11;;;;;;;;;;;;;;;7.38;46.77;95678.72;4943297;28;19995;-76
2022/11/03 01:17:36;;;;;;;;;;;;;;;7.65;46.06;95684.03;4943600;28;20261;-76
2022/11/03 01:20:03;;;;;;;;;;;;;;;7.71;46.24;95675.44;4934155;29;19975;-76
2022/11/03 01:22:28;;;;;;;;;;;;;;;7.74;45.68;95671.63;4943168;28;20034;-76
2022/11/03 01:24:53;;;;;;;;;;;;;;;7.74;45.56;95669.81;4944008;28;20302;-75
2022/11/03 01:27:19;;;;;;;;;;;;;;;7.69;45.49;95664.16;4942817;28;19995;-75
2022/11/03 01:29:44;;;;;;;;;;;;;;;7.26;46.93;95667.56;4942463;28;20424;-76
2022/11/03 01:32:10;;;;;;;;;;;;;;;7.55;46.19;95665.56;4934592;28;20371;-76
2022/11/03 01:34:35;;;;;;;;;;;;;;;7.41;46.66;95659.88;4930034;28;19995;-76
2022/11/03 01:37:00;;;;;;;;;;;;;;;7.36;46.18;95664.81;4943079;28;19995;-75
2022/11/03 01:39:25;;;;;;;;;;;;;;;6.83;48.24;95674.53;4942900;29;20459;-75
2022/11/03 01:41:51;;;;;;;;;;;;;;;7.14;47.03;95658.19;4942304;28;20364;-75
2022/11/03 01:44:16;;;;;;;;;;;;;;;7.22;47.39;95660.94;4943452;29;19990;-76
2022/11/03 01:46:48;;;;;;;;;;;;;;;7.21;46.87;95669.03;4942799;28;19998;-75
2022/11/03 01:49:15;;;;;;;;;;;;;;;7.24;46.49;95661.59;4962948;28;20025;-75
2022/11/03 01:51:41;;;;;;;;;;;;;;;7.19;47.25;95652.44;4932297;28;20068;-76
2022/11/03 01:54:07;;;;;;;;;;;;;;;7.02;47.15;95655.00;4953335;28;19989;-76
2022/11/03 01:56:33;;;;;;;;;;;;;;;7.17;46.88;95646.50;4914222;29;20340;-76
2022/11/03 01:58:58;;;;;;;;;;;;;;;7.01;48.12;95642.75;4932051;28;19995;-76
2022/11/03 02:01:23;;;;;;;;;;;;;;;7.13;46.47;95651.25;4938229;29;20601;-75
2022/11/03 02:03:50;;;;;;;;;;;;;;;7.15;46.92;95642.16;4945024;28;20411;-75
2022/11/03 02:06:15;;;;;;;;;;;;;;;6.99;48.11;95645.56;4935071;28;20005;-75
2022/11/03 02:08:42;;;;;;;;;;;;;;;7.10;46.58;95638.31;4942985;28;20403;-75
2022/11/03 02:13:51;;;;;;;;;;;;;;;5.79;50.07;95637.78;4942370;28;20458;-75
2022/11/03 02:16:17;;;;;;;;;;;;;;;6.41;49.37;95636.28;4942382;29;20038;-75
2022/11/03 02:18:42;;;;;;;;;;;;;;;6.68;48.15;95632.75;4961820;28;20599;-75
2022/11/03 02:21:09;;;;;;;;;;;;;;;6.67;48.05;95620.50;4925567;29;20420;-75
2022/11/03 02:23:37;;;;;;;;;;;;;;;6.69;48.71;95618.53;4942356;28;20550;-75
2022/11/03 02:26:02;;;;;;;;;;;;;;;6.72;48.64;95612.94;4928514;28;20347;-75
2022/11/03 02:28:28;;;;;;;;;;;;;;;6.86;47.98;95610.69;4928935;28;19975;-75
2022/11/03 02:31:06;;;;;;;;;;;;;;;6.37;50.74;95617.25;4960159;28;20102;-75
2022/11/03 02:33:36;;;;;;;;;;;;;;;6.44;49.53;95613.00;4942423;28;19966;-75
2022/11/03 02:36:04;;;;;;;;;;;;;;;6.37;50.21;95609.31;4943031;28;19991;-75
2022/11/03 02:38:29;;;;;;;;;;;;;;;6.58;48.92;95602.88;4926290;28;20042;-75
2022/11/03 02:40:54;;;;;;;;;;;;;;;6.57;50.88;95598.59;4936379;29;19975;-75
2022/11/03 02:43:20;;;;;;;;;;;;;;;6.74;49.65;95592.44;4945930;28;19991;-75
2022/11/03 02:45:45;;;;;;;;;;;;;;;6.52;49.45;95593.75;4932658;28;20066;-75
2022/11/03 02:48:11;;;;;;;;;;;;;;;6.71;48.57;95586.63;4948601;28;19963;-75
2022/11/03 02:50:36;;;;;;;;;;;;;;;6.64;48.30;95581.13;4946245;28;20038;-75
2022/11/03 02:53:01;;;;;;;;;;;;;;;6.70;48.83;95575.19;4947346;28;20003;-75
2022/11/03 02:55:47;;;;;;;;;;;;;;;6.38;50.14;95576.59;4945650;28;20378;-75
2022/11/03 02:58:24;;;;;;;;;;;;;;;6.53;48.96;95565.50;4945120;28;20447;-75
2022/11/03 03:00:53;;;;;;;;;;;;;;;6.61;48.93;95557.63;4961613;28;19975;-75
2022/11/03 03:03:24;;;;;;;;;;;;;;;6.24;49.38;95555.00;4946375;28;19990;-75
2022/11/03 03:05:49;;;;;;;;;;;;;;;6.32;50.76;95546.28;4964034;28;19995;-75
2022/11/03 03:08:14;;;;;;;;;;;;;;;6.20;50.43;95555.44;4936616;28;20001;-75
2022/11/03 03:10:41;;;;;;;;;;;;;;;6.30;51.36;95544.78;4948913;28;19998;-75
2022/11/03 03:13:06;;;;;;;;;;;;;;;6.31;49.45;95546.44;4944696;28;19979;-75
2022/11/03 03:15:50;;;;;;;;;;;;;;;6.47;49.08;95548.41;4947427;28;19998;-75
2022/11/03 03:18:26;;;;;;;;;;;;;;;6.12;51.00;95543.81;4945928;28;20556;-75
2022/11/03 03:20:55;;;;;;;;;;;;;;;6.18;51.10;95544.19;4945932;28;19970;-75
2022/11/03 03:23:21;;;;;;;;;;;;;;;6.21;50.57;95535.94;4949263;28;20440;-75
2022/11/03 03:26:04;;;;;;;;;;;;;;;6.06;53.32;95535.66;4945306;28;19991;-75
2022/11/03 03:28:35;;;;;;;;;;;;;;;5.97;51.12;95529.47;4945883;29;19967;-75
2022/11/03 03:31:01;;;;;;;;;;;;;;;6.31;50.81;95531.41;4930566;28;19987;-75
2022/11/03 03:33:26;;;;;;;;;;;;;;;6.35;50.16;95530.13;4949699;28;20479;-75
2022/11/03 03:35:52;;;;;;;;;;;;;;;6.35;50.26;95526.63;4948185;28;19987;-75
2022/11/03 03:38:21;;;;;;;;;;;;;;;6.24;50.24;95527.72;4949207;28;19995;-75
2022/11/03 03:40:47;;;;;;;;;;;;;;;6.39;50.16;95533.28;4947860;28;19981;-75
2022/11/03 03:43:12;;;;;;;;;;;;;;;6.37;49.66;95517.56;4945018;28;19986;-75
2022/11/03 03:45:37;;;;;;;;;;;;;;;6.07;50.79;95518.81;4949016;28;19970;-75
2022/11/03 03:48:03;;;;;;;;;;;;;;;6.30;50.16;95519.19;4936187;28;20324;-75
2022/11/03 03:50:28;;;;;;;;;;;;;;;6.29;52.34;95509.56;4953689;28;19991;-75
2022/11/03 03:52:55;;;;;;;;;;;;;;;6.27;50.31;95510.72;4963129;28;19978;-75
2022/11/03 03:55:20;;;;;;;;;;;;;;;6.27;50.26;95510.72;4947002;28;20534;-75
2022/11/03 03:57:46;;;;;;;;;;;;;;;6.26;49.86;95517.84;4933752;28;19975;-75
2022/11/03 04:00:12;;;;;;;;;;;;;;;6.34;50.10;95511.75;4945406;29;20420;-75
2022/11/03 04:02:37;;;;;;;;;;;;;;;6.34;49.50;95514.41;4931650;28;19982;-75
2022/11/03 04:05:03;;;;;;;;;;;;;;;6.18;49.96;95501.88;4945677;28;20617;-75
2022/11/03 04:07:46;;;;;;;;;;;;;;;6.32;49.44;95498.69;4944677;28;20368;-75
2022/11/03 04:10:11;;;;;;;;;;;;;;;6.31;49.33;95499.69;4944212;28;20059;-75
2022/11/03 04:23:34;;;;;;;;;;;;;;;5.96;50.91;95491.63;4944150;28;19997;-75
2022/11/03 04:25:59;;;;;;;;;;;;;;;6.15;50.03;95489.81;4944505;28;19999;-75
2022/11/03 04:28:24;;;;;;;;;;;;;;;6.04;50.59;95482.13;4934325;29;20335;-75
2022/11/03 04:30:49;;;;;;;;;;;;;;;6.11;49.74;95468.16;4953731;28;20430;-75
2022/11/03 04:33:19;;;;;;;;;;;;;;;6.07;51.19;95474.72;4944420;29;19978;-75
2022/11/03 04:35:44;;;;;;;;;;;;;;;5.95;50.71;95474.13;4949355;28;20383;-75
2022/11/03 04:38:09;;;;;;;;;;;;;;;5.98;50.11;95468.53;4943525;28;20001;-75
2022/11/03 04:40:35;;;;;;;;;;;;;;;6.10;49.79;95471.78;4943863;29;19975;-75
2022/11/03 04:43:00;;;;;;;;;;;;;;;6.00;50.65;95465.75;4930223;29;20022;-75
2022/11/03 04:45:27;;;;;;;;;;;;;;;5.91;50.27;95462.19;4932535;29;19971;-75
2022/11/03 04:47:52;;;;;;;;;;;;;;;5.95;49.74;95457.44;4945449;28;20490;-75
2022/11/03 04:50:19;;;;;;;;;;;;;;;6.14;49.12;95461.72;4943404;28;20188;-75
2022/11/03 04:52:45;;;;;;;;;;;;;;;6.07;49.18;95452.75;4944211;28;19998;-75
2022/11/03 04:55:12;;;;;;;;;;;;;;;5.96;49.74;95452.00;4933789;28;19994;-75
2022/11/03 04:57:39;;;;;;;;;;;;;;;6.09;49.23;95453.44;4929688;28;19967;-75
2022/11/03 05:00:05;;;;;;;;;;;;;;;5.95;50.68;95452.16;4928953;29;20189;-75
2022/11/03 05:02:30;;;;;;;;;;;;;;;5.93;50.50;95446.19;4925538;28;20399;-75
2022/11/03 05:04:55;;;;;;;;;;;;;;;6.01;49.96;95442.81;4927301;29;20467;-75
2022/11/03 05:07:22;;;;;;;;;;;;;;;5.95;49.55;95436.31;4942335;28;20005;-75
2022/11/03 05:09:47;;;;;;;;;;;;;;;5.86;49.11;95433.56;4942859;28;20003;-75
2022/11/03 05:12:12;;;;;;;;;;;;;;;5.79;49.10;95432.56;4929509;29;20518;-75
2022/11/03 05:14:37;;;;;;;;;;;;;;;5.77;50.25;95439.78;4943515;28;20057;-75
2022/11/03 05:17:05;;;;;;;;;;;;;;;5.86;49.74;95432.78;4944483;28;19995;-75
2022/11/03 05:19:32;;;;;;;;;;;;;;;5.92;49.74;95431.31;4942808;28;19995;-75
2022/11/03 05:21:57;;;;;;;;;;;;;;;5.87;49.84;95431.78;4943522;28;19998;-75
2022/11/03 05:24:24;;;;;;;;;;;;;;;5.85;50.12;95433.75;4944185;28;20423;-75
2022/11/03 05:26:50;;;;;;;;;;;;;;;5.92;50.01;95429.50;4945760;28;20097;-75
2022/11/03 05:29:17;;;;;;;;;;;;;;;5.90;50.03;95433.28;4933104;28;20085;-75
2022/11/03 05:31:43;;;;;;;;;;;;;;;5.95;49.80;95431.84;4944720;28;19994;-75
2022/11/03 05:34:20;;;;;;;;;;;;;;;6.08;49.66;95418.22;4946136;28;20045;-75
2022/11/03 05:36:45;;;;;;;;;;;;;;;6.08;49.85;95404.16;4931366;28;19994;-75
2022/11/03 05:39:30;;;;;;;;;;;;;;;6.11;49.70;95407.34;4927711;28;19990;-75
2022/11/03 05:41:56;;;;;;;;;;;;;;;6.02;49.44;95399.53;4946620;28;20351;-75
2022/11/03 05:44:40;;;;;;;;;;;;;;;5.99;49.50;95406.75;4936367;29;20516;-75
2022/11/03 05:47:12;;;;;;;;;;;;;;;5.98;49.10;95398.97;4942888;28;20443;-75
2022/11/03 05:49:38;;;;;;;;;;;;;;;5.99;48.82;95401.47;4927268;28;19973;-75
2022/11/03 05:52:03;;;;;;;;;;;;;;;5.96;49.06;95395.69;4943068;28;19974;-75
2022/11/03 05:54:30;;;;;;;;;;;;;;;6.00;49.16;95391.75;4935083;28;19987;-75
2022/11/03 05:56:55;;;;;;;;;;;;;;;5.86;49.33;95383.38;4945837;28;20096;-75
2022/11/03 05:59:25;;;;;;;;;;;;;;;5.93;49.35;95391.53;4942752;28;20111;-75
2022/11/03 06:01:50;;;;;;;;;;;;;;;5.86;49.78;95395.78;4937413;28;19978;-75
2022/11/03 06:04:42;;;;;;;;;;;;;;;5.91;49.69;95393.50;4943039;29;19971;-75
2022/11/03 06:07:13;;;;;;;;;;;;;;;5.88;49.99;95399.06;4940022;28;20387;-75
2022/11/03 06:09:38;;;;;;;;;;;;;;;5.82;50.68;95382.03;4942597;28;20002;-75
2022/11/03 06:12:04;;;;;;;;;;;;;;;5.94;50.12;95381.78;4944613;28;20041;-75
2022/11/03 06:14:29;;;;;;;;;;;;;;;5.95;50.21;95379.00;4941682;28;19991;-75
2022/11/03 06:16:59;;;;;;;;;;;;;;;6.05;49.80;95378.88;4948995;28;20034;-75
2022/11/03 06:19:31;;;;;;;;;;;;;;;6.08;49.70;95383.88;4943865;28;19990;-75
2022/11/03 06:21:57;;;;;;;;;;;;;;;6.12;50.05;95371.16;4942553;28;19998;-75
2022/11/03 06:24:24;;;;;;;;;;;;;;;6.12;49.89;95376.44;4931839;29;20017;-75
2022/11/03 06:26:49;;;;;;;;;;;;;;;6.07;49.84;95381.38;4942200;28;19995;-75
2022/11/03 06:29:15;;;;;;;;;;;;;;;5.96;50.68;95374.53;4927378;29;19971;-75
2022/11/03 06:31:40;;;;;;;;;;;;;;;6.12;50.15;95368.50;4941459;28;20115;-75
2022/11/03 06:34:12;;;;;;;;;;;;;;;6.08;50.03;95370.66;4931489;28;20283;-75
2022/11/03 06:36:37;;;;;;;;;;;;;;;5.99;50.33;95356.53;4928626;29;20352;-75
2022/11/03 06:39:03;;;;;;;;;;;;;;;6.25;49.34;95350.44;4941284;28;19991;-75
2022/11/03 06:41:29;;;;;;;;;;;;;;;6.18;50.04;95349.41;4940253;28;19974;-75
2022/11/03 06:43:54;;;;;;;;;;;;;;;6.06;50.41;95348.00;4928054;28;20057;-75
2022/11/03 06:46:21;;;;;;;;;;;;;;;6.36;49.50;95351.16;4942510;28;19987;-75
2022/11/03 06:48:46;;;;;;;;;;;;;;;6.29;50.06;95345.66;4942509;28;20013;-75
2022/11/03 06:51:26;;;;;;;;;;;;;;;6.10;51.46;95346.72;4941739;28;20003;-75
2022/11/03 06:53:52;;;;;;;;;;;;;;;6.22;51.04;95342.81;4949701;28;20062;-75
2022/11/03 06:56:21;;;;;;;;;;;;;;;6.45;50.36;95334.31;4946325;28;20081;-75
2022/11/03 06:58:49;;;;;;;;;;;;;;;6.36;50.85;95330.00;4926851;28;20719;-75
2022/11/03 07:01:15;;;;;;;;;;;;;;;6.54;50.57;95326.44;4933541;28;19977;-75
2022/11/03 07:03:41;;;;;;;;;;;;;;;6.63;50.40;95325.47;4946697;28;19987;-75
2022/11/03 07:06:09;;;;;;;;;;;;;;;6.86;50.17;95319.59;4941214;28;20560;-75
2022/11/03 07:08:35;;;;;;;;;;;;;;;6.82;50.44;95320.91;4940147;29;19998;-71
2022/11/03 07:11:11;;;;;;;;;;;;;;;6.98;50.22;95318.31;4942338;28;19990;-67
2022/11/03 07:13:36;;;;;;;;;;;;;;;6.98;50.59;95318.31;4934128;28;20518;-68
2022/11/03 07:16:01;;;;;;;;;;;;;;;6.97;51.29;95329.06;4941772;28;20101;-67
2022/11/03 07:18:33;;;;;;;;;;;;;;;7.09;51.25;95325.13;4940429;28;20014;-68
2022/11/03 07:20:59;;;;;;;;;;;;;;;7.45;50.81;95325.81;4939204;29;20014;-68
2022/11/03 07:23:25;;;;;;;;;;;;;;;7.48;50.50;95334.25;4939182;28;20030;-68
2022/11/03 07:25:55;;;;;;;;;;;;;;;7.39;50.92;95325.47;4937937;28;19975;-68
2022/11/03 07:28:25;;;;;;;;;;;;;;;7.70;50.55;95323.13;4938531;28;19975;-67
2022/11/03 07:30:50;;;;;;;;;;;;;;;7.77;50.53;95319.69;4935778;28;20393;-67
2022/11/03 07:33:17;;;;;;;;;;;;;;;8.01;50.20;95315.34;4942969;29;19975;-68
2022/11/03 07:35:43;;;;;;;;;;;;;;;8.22;49.77;95306.00;4929717;29;20227;-68
2022/11/03 07:38:17;;;;;;;;;;;;;;;8.46;48.64;95296.28;4943712;28;20448;-68
2022/11/03 07:40:42;;;;;;;;;;;;;;;8.11;49.78;95301.06;4931778;29;20450;-67
2022/11/03 07:43:15;;;;;;;;;;;;;;;8.16;49.45;95298.75;4942937;28;19994;-68
2022/11/03 07:45:44;;;;;;;;;;;;;;;8.49;48.49;95280.03;4943649;29;20503;-67
2022/11/03 07:48:15;;;;;;;;;;;;;;;8.25;49.14;95278.31;4935677;29;19971;-67
2022/11/03 07:50:40;;;;;;;;;;;;;;;8.53;48.01;95268.06;4938757;29;20022;-68
2022/11/03 07:53:11;;;;;;;;;;;;;;;8.44;47.96;95266.47;4935292;29;20044;-68
2022/11/03 07:55:36;;;;;;;;;;;;;;;8.25;48.40;95260.59;4935685;28;19997;-67
2022/11/03 07:58:01;;;;;;;;;;;;;;;8.28;47.97;95251.44;4943974;28;20363;-67
2022/11/03 08:00:26;;;;;;;;;;;;;;;8.17;48.35;95257.97;4949308;28;20020;-68
2022/11/03 08:02:56;;;;;;;;;;;;;;;8.23;48.67;95261.75;4943991;28;20247;-68
2022/11/03 08:05:21;;;;;;;;;;;;;;;8.07;48.99;95255.50;4951413;28;19975;-67
2022/11/03 08:07:46;;;;;;;;;;;;;;;8.15;48.75;95252.84;4944087;28;20468;-67
2022/11/03 08:10:12;;;;;;;;;;;;;;;7.91;49.67;95251.06;4943794;28;21372;-66
2022/11/03 08:12:38;;;;;;;;;;;;;;;8.09;49.51;95244.75;4943622;29;19983;-68
2022/11/03 08:15:03;;;;;;;;;;;;;;;8.22;49.12;95233.56;4942081;28;20002;-66
2022/11/03 08:17:29;;;;;;;;;;;;;;;8.41;48.79;95234.97;4946204;28;20305;-67
2022/11/03 08:19:54;;;;;;;;;;;;;;;8.47;49.11;95233.47;4944043;28;20038;-68
2022/11/03 08:22:19;;;;;;;;;;;;;;;8.55;48.70;95226.28;4942558;28;20006;-67
2022/11/03 08:24:44;;;;;;;;;;;;;;;8.66;49.38;95221.56;4942353;29;20204;-68
2022/11/03 08:27:10;;;;;;;;;;;;;;;8.90;48.85;95217.09;4940236;28;19986;-68
2022/11/03 08:29:35;;;;;;;;;;;;;;;9.09;48.25;95226.44;4941980;28;20033;-67
2022/11/03 08:32:00;;;;;;;;;;;;;;;9.28;48.39;95219.81;4941773;28;20230;-67
2022/11/03 08:34:25;;;;;;;;;;;;;;;9.32;48.37;95210.47;4943713;28;19991;-68
2022/11/03 08:36:51;;;;;;;;;;;;;;;9.51;47.77;95208.31;4943683;28;19994;-67
2022/11/03 08:39:16;;;;;;;;;;;;;;;9.62;47.50;95214.19;4942053;28;20049;-68
2022/11/03 08:41:41;;;;;;;;;;;;;;;9.61;47.54;95213.38;4941579;28;19975;-67
2022/11/03 08:44:06;;;;;;;;;;;;;;;9.61;47.50;95209.88;4940491;28;19971;-68
2022/11/03 08:46:32;;;;;;;;;;;;;;;9.18;48.63;95208.63;4943909;28;20353;-68
2022/11/03 08:48:57;;;;;;;;;;;;;;;9.65;47.45;95213.84;4943053;28;19983;-68
2022/11/03 08:51:22;;;;;;;;;;;;;;;10.01;47.34;95201.63;4943481;28;19994;-66
2022/11/03 08:53:52;;;;;;;;;;;;;;;10.17;45.92;95196.13;4942263;28;19979;-67
2022/11/03 08:56:18;;;;;;;;;;;;;;;10.43;45.37;95210.78;4942577;29;19989;-68
2022/11/03 08:58:43;;;;;;;;;;;;;;;10.78;44.40;95209.31;4942809;28;19987;-67
2022/11/03 09:01:08;;;;;;;;;;;;;;;11.07;43.85;95213.69;4939278;28;19975;-67
2022/11/03 09:03:34;;;;;;;;;;;;;;;11.03;43.55;95215.09;4941303;28;19990;-68
2022/11/03 09:05:59;;;;;;;;;;;;;;;11.09;43.83;95198.34;4942375;28;19997;-68
2022/11/03 09:08:24;;;;;;;;;;;;;;;10.46;44.92;95212.25;4943274;28;20046;-68
2022/11/03 09:10:49;;;;;;;;;;;;;;;10.59;44.83;95198.25;4941759;29;20038;-68
2022/11/03 09:13:14;;;;;;;;;;;;;;;10.82;44.11;95190.13;4943932;28;20424;-68
2022/11/03 09:15:40;;;;;;;;;;;;;;;10.93;43.91;95195.94;4940976;28;20391;-67
2022/11/03 09:18:05;;;;;;;;;;;;;;;11.18;43.31;95188.38;4941710;28;19998;-68
2022/11/03 09:20:30;;;;;;;;;;;;;;;10.81;43.70;95183.13;4941485;28;20324;-68
2022/11/03 09:22:55;;;;;;;;;;;;;;;11.15;43.78;95180.78;4937662;29;20034;-68
2022/11/03 09:25:21;;;;;;;;;;;;;;;11.28;43.00;95176.59;4940453;29;20506;-68
2022/11/03 09:27:46;;;;;;;;;;;;;;;11.51;42.40;95179.00;4940080;28;20523;-67
2022/11/03 09:30:11;;;;;;;;;;;;;;;11.68;42.00;95174.19;4941961;28;20519;-73
2022/11/03 09:32:37;;;;;;;;;;;;;;;11.58;42.34;95179.88;4942539;28;20005;-72
2022/11/03 09:35:02;;;;;;;;;;;;;;;11.61;42.21;95166.16;4942662;28;20494;-73
2022/11/03 09:37:28;;;;;;;;;;;;;;;11.52;42.31;95161.97;4930173;29;20089;-73
2022/11/03 09:39:53;;;;;;;;;;;;;;;11.74;41.73;95153.91;4940282;28;19986;-73
2022/11/03 09:42:18;;;;;;;;;;;;;;;11.63;42.28;95155.31;4941886;28;19995;-71
2022/11/03 09:44:45;;;;;;;;;;;;;;;11.85;41.81;95147.19;4943122;28;20424;-71
2022/11/03 09:47:13;;;;;;;;;;;;;;;11.86;41.60;95148.84;4943630;28;19994;-72
2022/11/03 09:49:38;;;;;;;;;;;;;;;12.06;40.93;95148.09;4932180;29;20065;-72
2022/11/03 09:52:03;;;;;;;;;;;;;;;12.11;40.62;95132.38;4940576;28;19986;-72
2022/11/03 09:54:28;;;;;;;;;;;;;;;12.23;40.68;95135.28;4942252;28;20054;-72
2022/11/03 09:56:57;;;;;;;;;;;;;;;12.23;40.76;95130.75;4939563;28;20363;-72
2022/11/03 09:59:22;;;;;;;;;;;;;;;12.09;40.86;95126.41;4928585;28;19987;-72
2022/11/03 10:01:48;;;;;;;;;;;;;;;12.14;40.97;95116.78;4941218;28;20006;-72
2022/11/03 10:04:14;;;;;;;;;;;;;;;12.33;40.63;95118.88;4960236;28;20493;-72
2022/11/03 10:06:40;;;;;;;;;;;;;;;12.17;40.24;95114.75;4941458;28;19990;-72
2022/11/03 10:09:07;;;;;;;;;;;;;;;12.24;40.51;95112.91;4941758;28;20537;-72
2022/11/03 10:11:32;;;;;;;;;;;;;;;12.37;40.27;95091.59;4929605;28;19987;-71
2022/11/03 10:13:59;;;;;;;;;;;;;;;12.29;40.31;95089.09;4941948;28;20001;-71
2022/11/03 10:16:24;;;;;;;;;;;;;;;12.58;39.94;95089.75;4941588;28;20466;-71
2022/11/03 10:18:50;;;;;;;;;;;;;;;12.50;39.72;95084.63;4939265;28;20051;-71
2022/11/03 10:21:16;;;;;;;;;;;;;;;12.55;39.78;95082.19;4942459;28;19982;-72
2022/11/03 10:23:42;;;;;;;;;;;;;;;12.40;39.94;95082.34;4942741;28;20097;-72
2022/11/03 10:26:09;;;;;;;;;;;;;;;12.24;40.22;95063.00;4943085;28;20104;-71
2022/11/03 10:28:34;;;;;;;;;;;;;;;12.27;40.27;95056.44;4941177;29;19978;-72
2022/11/03 10:31:00;;;;;;;;;;;;;;;12.10;40.28;95038.16;4939877;28;20440;-71
2022/11/03 10:33:27;;;;;;;;;;;;;;;12.12;40.62;95021.94;4941483;28;19970;-71
2022/11/03 10:35:53;;;;;;;;;;;;;;;12.14;40.44;95007.38;4936894;28;20005;-71
2022/11/03 10:38:38;;;;;;;;;;;;;;;11.91;40.80;95023.72;4941469;29;19991;-71
2022/11/03 10:41:13;;;;;;;;;;;;;;;11.98;40.88;95029.91;4939078;28;20023;-72
2022/11/03 10:43:39;;;;;;;;;;;;;;;11.17;41.85;95036.72;4941390;28;20093;-71
2022/11/03 10:46:19;;;;;;;;;;;;;;;11.42;41.97;95029.06;4940866;28;20085;-72
2022/11/03 10:48:59;;;;;;;;;;;;;;;11.72;41.62;94996.78;4940791;28;19971;-71
2022/11/03 10:51:25;;;;;;;;;;;;;;;11.98;41.13;95000.56;4940870;29;19993;-71
2022/11/03 10:53:50;;;;;;;;;;;;;;;12.01;40.13;94988.66;4942039;28;19979;-71
2022/11/03 10:56:15;;;;;;;;;;;;;;;11.96;41.04;94991.09;4939834;29;19986;-71
2022/11/03 10:58:40;;;;;;;;;;;;;;;11.87;41.22;94985.16;4939633;28;20145;-71
2022/11/03 11:01:07;;;;;;;;;;;;;;;12.05;40.63;94976.56;4925846;29;19977;-71
2022/11/03 11:03:33;;;;;;;;;;;;;;;12.21;40.22;94964.69;4924990;28;20464;-71
2022/11/03 11:05:58;;;;;;;;;;;;;;;11.96;40.51;94959.91;4926974;28;19981;-71
2022/11/03 11:08:23;;;;;;;;;;;;;;;11.69;41.60;94956.38;4944837;28;20009;-71
2022/11/03 11:10:49;;;;;;;;;;;;;;;11.82;41.02;94944.91;4943992;28;20348;-71
2022/11/03 11:13:17;;;;;;;;;;;;;;;11.89;40.77;94956.41;4943406;29;19970;-71
2022/11/03 11:15:43;;;;;;;;;;;;;;;11.84;41.14;94949.03;4944003;28;20070;-71
2022/11/03 11:18:08;;;;;;;;;;;;;;;11.89;41.14;94941.25;4943205;28;20471;-71
2022/11/03 11:20:33;;;;;;;;;;;;;;;11.76;41.04;94935.88;4941972;28;19973;-72
2022/11/03 11:23:17;;;;;;;;;;;;;;;11.57;41.87;94935.63;4946217;28;20214;-72
2022/11/03 11:26:01;;;;;;;;;;;;;;;11.66;41.72;94930.91;4945231;28;20390;-72
2022/11/03 11:28:26;;;;;;;;;;;;;;;12.04;40.67;94932.22;4942800;29;20023;-71
2022/11/03 11:31:22;;;;;;;;;;;;;;;11.86;41.05;94930.97;4941880;28;20002;-71
2022/11/03 11:33:48;;;;;;;;;;;;;;;11.70;41.53;94920.69;4943325;28;20030;-71
2022/11/03 11:36:23;;;;;;;;;;;;;;;12.00;40.38;94909.66;4944845;29;20247;-72
2022/11/03 11:38:50;;;;;;;;;;;;;;;12.30;39.52;94906.59;4943367;28;20001;-72
2022/11/03 11:41:15;;;;;;;;;;;;;;;12.20;39.60;94906.19;4942439;29;19971;-73
2022/11/03 11:43:40;;;;;;;;;;;;;;;12.17;40.01;94895.94;4943926;28;19997;-73
2022/11/03 11:46:21;;;;;;;;;;;;;;;12.34;39.48;94877.66;4943544;28;19971;-72
2022/11/03 11:48:54;;;;;;;;;;;;;;;12.00;40.19;94878.44;4943362;28;19966;-72
2022/11/03 11:51:19;;;;;;;;;;;;;;;11.77;40.73;94876.19;4940737;28;19994;-72
2022/11/03 11:53:44;;;;;;;;;;;;;;;11.79;40.80;94881.34;4941448;28;19985;-74
2022/11/03 11:56:10;;;;;;;;;;;;;;;11.83;40.77;94882.56;4943303;28;20077;-73
2022/11/03 11:58:35;;;;;;;;;;;;;;;11.83;40.52;94880.69;4931577;28;19994;-73
2022/11/03 12:01:01;;;;;;;;;;;;;;;11.98;40.14;94872.53;4947291;28;20014;-73
2022/11/03 12:03:34;;;;;;;;;;;;;;;11.74;40.84;94863.25;4934378;28;19994;-75
2022/11/03 12:06:00;;;;;;;;;;;;;;;12.04;40.12;94862.88;4945348;28;19971;-73
2022/11/03 12:08:28;;;;;;;;;;;;;;;12.26;39.76;94868.84;4943999;28;20490;-75
2022/11/03 12:10:54;;;;;;;;;;;;;;;12.16;39.50;94876.44;4930696;28;20057;-77
2022/11/03 12:13:38;;;;;;;;;;;;;;;11.07;41.69;94875.38;4927722;29;20452;-74
2022/11/03 12:16:04;;;;;;;;;;;;;;;11.53;41.56;94859.75;4942884;28;20002;-73
2022/11/03 12:18:33;;;;;;;;;;;;;;;12.07;40.39;94833.13;4942571;28;21598;-77
2022/11/03 12:20:59;;;;;;;;;;;;;;;12.36;39.42;94848.88;4939979;28;20169;-74
2022/11/03 12:23:31;;;;;;;;;;;;;;;12.23;39.78;94866.56;4946070;28;20039;-71
2022/11/03 12:25:57;;;;;;;;;;;;;;;11.65;40.79;94859.97;4941694;28;20452;-70
2022/11/03 12:28:34;;;;;;;;;;;;;;;11.34;42.04;94848.84;4943565;29;19974;-70
2022/11/03 12:31:00;;;;;;;;;;;;;;;12.07;40.26;94814.44;4942735;28;20010;-71
2022/11/03 12:33:26;;;;;;;;;;;;;;;11.89;40.67;94802.53;4943142;28;19967;-70
2022/11/03 12:35:51;;;;;;;;;;;;;;;11.85;40.58;94820.00;4940205;28;20066;-70
2022/11/03 12:38:17;;;;;;;;;;;;;;;11.66;41.07;94810.94;4943339;28;20025;-70
2022/11/03 12:40:42;;;;;;;;;;;;;;;11.80;40.73;94803.75;4944471;28;20004;-70
2022/11/03 12:43:07;;;;;;;;;;;;;;;11.49;41.46;94789.22;4942908;28;20312;-71
2022/11/03 12:45:32;;;;;;;;;;;;;;;11.34;41.85;94792.91;4944743;28;19975;-70
2022/11/03 12:47:57;;;;;;;;;;;;;;;11.30;42.48;94774.84;4943748;28;20459;-70
2022/11/03 12:50:23;;;;;;;;;;;;;;;11.02;42.65;94765.13;4942550;28;20146;-70
2022/11/03 12:52:48;;;;;;;;;;;;;;;11.06;42.50;94759.22;4944609;28;19979;-71
2022/11/03 12:55:13;;;;;;;;;;;;;;;11.37;41.85;94755.19;4942951;28;19995;-71
2022/11/03 12:57:38;;;;;;;;;;;;;;;11.12;42.25;94753.09;4944807;28;19994;-72
2022/11/03 13:00:06;;;;;;;;;;;;;;;10.92;43.04;94750.38;4942117;28;20236;-70
2022/11/03 13:02:33;;;;;;;;;;;;;;;11.28;42.01;94763.59;4940344;28;20590;-70
2022/11/03 13:04:58;;;;;;;;;;;;;;;11.03;42.66;94775.59;4943796;28;19982;-71
2022/11/03 13:07:23;;;;;;;;;;;;;;;11.09;42.98;94760.69;4942733;28;20013;-71
2022/11/03 13:09:48;;;;;;;;;;;;;;;11.05;42.31;94732.78;4941464;28;20320;-70
2022/11/03 13:12:32;;;;;;;;;;;;;;;10.77;42.86;94731.09;4942913;28;19991;-71